Results by/Résultats par Info:[email protected] Phone: (613)723-0994

                   
                                    K-TOWN TRIATHLON

                                Sunday August 6th, 2006

                         Confederation Park, Kingston, Ontario

                        Overall Results - Short Course Triathlon

  -----FINAL----- ----------------------- ------------ -------------------- ----           750m                         30km                   7.2km
                                                       Category                     ------SWIM + T1-------    ----------BIKE--------    -------RUN + T2-------- -------
    Pos     Time  Name                    City         Plc/Total Category     #      Cat  Ovr  Time  /100m     Cat Ovr Time  km/hr      Cat  Ovr  Time     km   BRIDGE
  ------  ------- ----------------------- ------------ -------------------- ----    ----------------------    ----------------------    ----------------------- -------
    1     1:22:13 Andrew COURCHENE        Carleton Pla   1/13  M20 - 24      394           9   12:10  1:38           1   46:13  38.9            2   23:51  3:19
    2     1:22:57 Alexander HINTON        Kingston       1/5   Elite Men     335           1   10:20  1:23           4   48:25  37.2            3   24:13  3:22
    3     1:24:20 Ian DONALD              Ottawa         2/5   Elite Men     474           2   10:34  1:25           3   46:55  38.4            8   26:52  3:44
    4     1:28:01 Dorelle HINTON          Kingston       1/2   Elite Women   525           3   10:36  1:25           5   50:14  35.8           10   27:12  3:47
    5     1:28:07 Tim CHAPLIN             Kingston       1/12  M25 - 29      316          21   13:49  1:51           8   51:20  35.1            1   22:59  3:12
    6     1:28:20 Larbi BENHABIB          Kingston       2/12  M25 - 29      446          13   13:02  1:45           2   46:55  38.4           15   28:25  3:57
    7     1:30:22 Rick COLLARD            Ottawa         1/21  M45 - 49      469           4   11:50  1:35          24   53:44  33.5            4   24:50  3:27
    8     1:31:59 Jim SCHRIEL             Kanata         1/18  M30 - 34      449          26   14:19  1:55          10   51:42  34.8            5   26:00  3:37
    9     1:32:10 Jason DUNFORD           Toronto        1/16  M35 - 39      373          20   13:35  1:49          11   51:47  34.8            7   26:49  3:44
   10     1:33:02 Todd HUGHSON            Burlington     1/30  M40 - 44      305           7   12:08  1:37          20   53:24  33.7           11   27:32  3:50
   11     1:33:45 Blair MORGAN            Yarker         1/11  Junior Men    347           8   12:09  1:38          30   54:41  32.9            9   26:56  3:45
   12     1:34:11 Patrick WHEELER         Kingston       2/13  M20 - 24      476          12   12:32  1:41          18   53:21  33.7           14   28:20  3:56
   13     1:34:28 Paul MONROE             Wilton         1/20  M50 - 54      482          30   14:29  1:56           9   51:22  35.0           17   28:38  3:59
   14     1:34:53 Jairo MUNOZ             Kingston       2/30  M40 - 44      341          34   14:55  2:00           7   50:34  35.6           22   29:25  4:06
   15     1:36:49 Paul BOSTON             Toronto        3/30  M40 - 44      312          37   15:11  2:02          17   53:08  33.9           16   28:31  3:58
   16     1:37:07 Simon GOLLISH           Westport       2/11  Junior Men    377          24   14:07  1:53          14   52:40  34.2           25   30:21  4:13
   17     1:37:18 John SCHLOTTKE          Kingston       4/30  M40 - 44      302          11   12:28  1:40          16   53:05  33.9           35   31:46  4:25
   18     1:38:13 Simon WEBB              Ottawa         3/11  Junior Men    432          36   14:58  2:00          46   56:39  31.8            6   26:37  3:42
   19     1:38:19 David SHAW              Oakville       2/18  M30 - 34      361          60   16:16  2:11           6   50:24  35.7           32   31:40  4:24
   20     1:38:43 Annie FOREMAN-MACKEY    Kingston       1/5   Junior Women  597           6   12:02  1:37          21   53:30  33.6           58   33:12  4:37
   21     1:39:22 Brant STACHEL           Kingston       4/11  Junior Men    396          14   13:14  1:46          70   58:33  30.7           12   27:36  3:50
   22     1:40:03 David BRASSARD          Ottawa         3/18  M30 - 34      444         102   18:06  2:25          15   53:03  33.9           18   28:56  4:01
   23     1:40:21 Glenn S ROBINSON        Chelsea        5/30  M40 - 44      462          50   15:55  2:08          31   54:42  32.9           23   29:45  4:08
   24     1:41:13 Bruce TIPPETT           Manotick       2/20  M50 - 54      406          57   16:10  2:10          27   54:19  33.1           26   30:45  4:17
   25     1:41:32 Stuart JONES            Kingston       2/21  M45 - 49      463          31   14:36  1:57          34   55:05  32.7           37   31:52  4:26
   26     1:41:41 Bill DEE                Unionville     2/16  M35 - 39      355          54   16:07  2:09          19   53:21  33.7           46   32:14  4:29
   27     1:41:46 Mike WEBER              Kingston       3/16  M35 - 39      354           5   12:01  1:37          50   56:53  31.6           52   32:53  4:34
   28     1:41:48 Kevin COFFEY            Kingston       3/13  M20 - 24      333         155   19:56  2:40          22   53:35  33.6           13   28:18  3:56
   29     1:41:59 Graeme SMITH            Kingston       3/21  M45 - 49      336          29   14:27  1:56          28   54:19  33.1           60   33:13  4:37
   30     1:42:03 Shannon MERIZZI         Ottawa         1/23  W25 - 29      591          25   14:15  1:54          61   57:48  31.1           24   30:01  4:11
   31     1:43:03 David GOUETT            Kingston       6/30  M40 - 44      310          41   15:27  2:04          39   55:44  32.3           38   31:53  4:26
   32     1:43:10 Robert RAGOTTE          Brampton       5/11  Junior Men    384          73   16:51  2:15          26   54:06  33.3           45   32:14  4:29
   33     1:43:57 Alison CHALMERS         Kingston       2/23  W25 - 29      557          17   13:22  1:47          85   59:42  30.2           27   30:54  4:18
   34     1:44:05 Chris OUIMET            Ottawa         4/18  M30 - 34      331         119   18:39  2:30          13   52:37  34.2           51   32:50  4:34
   35     1:44:06 Andrew WHITE            Uxbridge       4/16  M35 - 39      375          78   17:06  2:17          42   55:59  32.2           28   31:02  4:19
   36     1:44:07 Francois BEAUPRE        Kingston       5/18  M30 - 34      370         112   18:18  2:27          12   51:58  34.6           67   33:52  4:43
   37     1:44:16 Laurie ROSS             Battersea      1/16  W45 - 49      503          19   13:29  1:48          48   56:45  31.7           71   34:03  4:44
   38     1:44:18 Denis MOORE             Napanee        4/21  M45 - 49      436          85   17:20  2:19          25   53:46  33.5           59   33:13  4:37
   39     1:44:41 Brian FARNELL           RR1 Inverary   1/9   M55 - 59      407          56   16:09  2:10          32   54:42  32.9           66   33:50  4:42
   40     1:45:05 Dave WALL               Kingston       3/20  M50 - 54      398          89   17:25  2:20          23   53:36  33.6           72   34:05  4:44
   41     1:45:23 Leslie FARQUHARSON      Kingston       4/20  M50 - 54      405          28   14:26  1:56          44   56:09  32.1           86   34:49  4:51
   42     1:45:54 James MATHERS           Toronto        2/9   M55 - 59      442         110   18:16  2:27          36   55:30  32.4           41   32:08  4:28
   43     1:46:04 Carla BRASH             Kingston       3/23  W25 - 29      584          33   14:54  2:00          67   58:23  30.8           50   32:49  4:34
   44     1:46:11 David STOCKS            Kingston       5/20  M50 - 54      322          95   17:46  2:23          33   54:57  32.8           64   33:30  4:40
   45     1:46:15 Kevin TULK              Kingston       5/16  M35 - 39      448          97   17:59  2:24          29   54:23  33.1           68   33:55  4:43
   46     1:46:27 Sheldon COOK            Inverary       7/30  M40 - 44      415          98   18:00  2:24          79   59:06  30.5           21   29:23  4:05
   47     1:46:32 Devin REYNOLDS          Kingston       4/13  M20 - 24      358          49   15:53  2:08          75   58:54  30.6           36   31:47  4:25
   48     1:46:50 Michael FREEMAN         Kingston       5/13  M20 - 24      464          40   15:24  2:04          43   56:05  32.1           99   35:22  4:55
   49     1:46:52 Ross REED               Ottawa         6/11  Junior Men    376          62   16:26  2:12          52   57:15  31.4           57   33:12  4:37
   50     1:47:17 Neil HOPKINS            Kingston       6/16  M35 - 39      410         100   18:02  2:25          96 1:00:15  29.9           19   29:01  4:02
   51     1:47:19 Lauren SAGADORE         Perth Road     2/5   Junior Women  569          22   13:49  1:51          77   58:55  30.6           80   34:36  4:49
   52     1:47:24 Breanne GIBSON          Kingston       1/16  W20 - 24      598          16   13:22  1:47         102 1:00:54  29.6           56   33:09  4:37
   53     1:47:53 Rob WHELAN              Kingston       3/12  M25 - 29      392         125   18:56  2:32          88   59:49  30.1           20   29:08  4:03
   54     1:47:59 Alain-Remi LAJEUNESSE   Hamilton       4/12  M25 - 29      472          71   16:49  2:15          47   56:45  31.7           78   34:27  4:47
   55     1:48:00 Louise BOUDREAULT       Gatineau       1/14  W30 - 34      589          83   17:13  2:18          37   55:39  32.3           94   35:09  4:53
   56     1:48:04 Doug LAUGHTON           Ottawa         8/30  M40 - 44      328          59   16:16  2:11          78   58:55  30.6           53   32:54  4:35
   57     1:48:47 Tom KAUL                Kingston       6/18  M30 - 34      393          87   17:22  2:19          53   57:16  31.4           74   34:11  4:45
   58     1:48:49 Andre LUI               Kingston       5/12  M25 - 29      470          91   17:30  2:20          65   58:18  30.9           54   33:03  4:36
   59     1:49:08 Cyrus BOADWAY           Kingston       6/12  M25 - 29      344          45   15:37  2:05          73   58:50  30.6           83   34:43  4:50
   60     1:49:25 Leah KETCHESON          Ann Arbor      4/23  W25 - 29      522          42   15:29  2:04          56   57:25  31.3          119   36:32  5:05
   61     1:49:34 Cary LAVINE             Toronto        9/30  M40 - 44      374          38   15:13  2:02          66   58:21  30.8          111   36:00  5:00
   62     1:49:42 Kevin PILLING           Brockville     7/18  M30 - 34      457         103   18:08  2:25          63   58:06  31.0           63   33:29  4:39
   63     1:49:54 Brian FRANK             Kingston       7/16  M35 - 39      447          58   16:12  2:10          86   59:48  30.1           69   33:55  4:43
   64     1:50:14 Angela BROWN            Kingston       2/14  W30 - 34      538          10   12:10  1:38         103 1:00:56  29.5          134   37:08  5:10
   65     1:50:18 John DUFFNEY            Kingston      10/30  M40 - 44      368         104   18:09  2:26          92   59:59  30.0           44   32:11  4:29
   66     1:51:09 Gary TRANMER            Desbarats      3/9   M55 - 59      314          82   17:11  2:18          80   59:14  30.4           84   34:45  4:50
   67     1:51:12 Derek PYNE              Kingston       6/13  M20 - 24      399         117   18:35  2:29          58   57:37  31.2           92   35:01  4:52
   68     1:51:12 Leah MCGRAW             Kingston       3/5   Junior Women  618          44   15:32  2:05         152 1:03:57  28.1           34   31:45  4:25
   69     1:51:14 Laurent GODIN           Kingston      11/30  M40 - 44      313         109   18:15  2:26          76   58:54  30.6           73   34:06  4:45
   70     1:51:18 Nicole TELIDIS          Kingston       2/16  W20 - 24      604         145   19:40  2:38          49   56:50  31.7           87   34:49  4:51
   71     1:51:19 Dave ROBERTSON          Kingston      12/30  M40 - 44      425          72   16:50  2:15          45   56:38  31.8          148   37:52  5:16
   72 CLY 1:51:21 Cory VALE               Kingston       8/18  M30 - 34      421         189   21:08  2:50          38   55:41  32.3           79   34:32  4:48
   73     1:51:23 Scott WILKES            Kingston       9/18  M30 - 34      389         157   20:00  2:40          95 1:00:08  29.9           29   31:16  4:21
   74     1:51:29 Tyler MACGILLIVRAY      Kingston       7/11  Junior Men    329          39   15:22  2:03          72   58:45  30.6          144   37:23  5:12
   75     1:51:41 Scott VOWLES            Kingston       8/16  M35 - 39      371          48   15:47  2:07          69   58:32  30.8          142   37:23  5:12
   76     1:51:49 Andrew SPEEDY           Belleville     6/20  M50 - 54      382          88   17:23  2:19          84   59:36  30.2           89   34:50  4:51
   77     1:51:56 Renee KENNY             Kingston       3/16  W20 - 24      629          23   14:01  1:53         119 1:01:57  29.1          110   35:59  5:00
   78     1:51:58 Terry HALEY             Yarker        13/30  M40 - 44      304         156   19:57  2:40          40   55:50  32.2          117   36:12  5:02
   79     1:52:00 Mike MCINERNEY          Ottawa        14/30  M40 - 44      431         101   18:04  2:25          93   59:59  30.0           70   33:58  4:44
   80     1:52:17 Shauna TSUCHIYA         Kingston       5/23  W25 - 29      609          80   17:10  2:18         137 1:03:08  28.5           39   31:59  4:27
   81     1:52:21 Mark ROBERTSON          Burlington     9/16  M35 - 39      429         120   18:40  2:30         125 1:02:10  29.0           31   31:31  4:23
   82 CLY 1:52:28 John COOK               Toronto        5/21  M45 - 49      348         115   18:34  2:29          64   58:13  30.9          109   35:43  4:58
   83     1:52:33 Geoff DEIR              Gananoque     10/16  M35 - 39      308         107   18:12  2:26          60   57:45  31.2          123   36:36  5:05
   84     1:52:45 Megan CROMARTY          Kingston       6/23  W25 - 29      603          81   17:11  2:18          99 1:00:25  29.8           95   35:10  4:53
   85     1:52:45 Michael DIXON           Ottawa         4/9   M55 - 59      435         140   19:29  2:36          62   57:51  31.1          101   35:26  4:56
   86     1:52:46 Derek OUELLET           Kingston       6/21  M45 - 49      307          32   14:46  1:59          54   57:23  31.4          186   40:37  5:39
   87     1:52:50 Dale ENGEN              Kingston      15/30  M40 - 44      364         207   22:29  3:00          71   58:40  30.7           33   31:42  4:25
   88     1:52:55 Tyson KELLERMANN        Elginburg      3/5   Elite Men     475         218   23:01  3:05          35   55:06  32.7           88   34:50  4:51
   89     1:53:01 Andrew NISKA            Ottawa        16/30  M40 - 44      404          52   15:59  2:08         105 1:00:58  29.5          113   36:05  5:01
   90     1:53:07 Tara DAVIS              Kingston       7/23  W25 - 29      594          69   16:46  2:15         110 1:01:19  29.4           93   35:03  4:52
   91     1:53:11 Ed LAYTON               Toronto       11/16  M35 - 39      437          53   16:04  2:09         109 1:01:04  29.5          112   36:03  5:01
   92     1:53:32 Benoit MERIZZI          Ottawa        10/18  M30 - 34      428         168   20:27  2:44         100 1:00:50  29.6           47   32:16  4:29
   93     1:53:39 Brett ROANE             Inverary       8/11  Junior Men    380         108   18:13  2:26         115 1:01:47  29.1           65   33:40  4:41
   94     1:53:39 Gerard ARCHAMBAULT      La prairie     7/21  M45 - 49      445          47   15:47  2:07         101 1:00:52  29.6          133   37:01  5:09
   95     1:53:41 Tracey GOLAZ            Cobourg        2/16  W45 - 49      585         111   18:17  2:27          90   59:53  30.1          106   35:33  4:57
   96     1:53:43 Rachael MORKEM          Kingston       8/23  W25 - 29      579         129   19:07  2:33          81   59:14  30.4          100   35:23  4:55
   97     1:54:02 Jean PAQUIN             Inverary       1/8   W35 - 39      546          64   16:39  2:14         133 1:02:36  28.8           85   34:47  4:50
   98     1:54:04 David Luke OATES        Kingston       7/13  M20 - 24      458         183   20:56  2:48          59   57:41  31.2          102   35:27  4:56
   99     1:54:06 Amy BLIZZARD            Uxbridge       3/14  W30 - 34      540         141   19:33  2:37          68   58:28  30.8          115   36:07  5:01
  100     1:54:17 Scott BURTON            Amherstview    7/12  M25 - 29      426         137   19:25  2:36         113 1:01:37  29.2           62   33:16  4:38
  101     1:54:22 Chuck DOUGLAS           Kingston      17/30  M40 - 44      402         131   19:15  2:34          57   57:36  31.2          145   37:32  5:13
  102     1:54:34 Stephen MORTON          Ottawa        12/16  M35 - 39      439          70   16:47  2:15         175 1:05:38  27.4           43   32:10  4:28
  103     1:54:36 Alexandria CRONK        Kingston       4/16  W20 - 24      567          15   13:14  1:46         158 1:04:09  28.1          137   37:15  5:11
  104     1:54:46 Mark WALDRON            Kingston       8/21  M45 - 49      454         152   19:52  2:39         132 1:02:31  28.8           48   32:24  4:30
  105     1:54:46 Katie SAX               Mississauga    9/23  W25 - 29      574          18   13:27  1:48         155 1:04:04  28.1          138   37:16  5:11
  106     1:54:48 Andres PUGI             Mississuaga    9/21  M45 - 49      412         105   18:10  2:26          82   59:17  30.4          141   37:22  5:12
  107     1:54:54 Brian MACGILLIVRAY      Kingston      18/30  M40 - 44      330          77   17:05  2:17         143 1:03:25  28.4           77   34:25  4:47
  108     1:55:02 Jim ELYOT               Kingston       7/20  M50 - 54      408         167   20:26  2:44          98 1:00:23  29.8           75   34:13  4:46
  109     1:55:07 Vince RAMSAY            Inverary       8/20  M50 - 54      356         118   18:37  2:29         170 1:05:13  27.6           30   31:18  4:21
  110     1:55:22 Mike SCHAUB             Sydenham      19/30  M40 - 44      466         144   19:36  2:37          74   58:54  30.6          129   36:54  5:08
  111     1:55:45 Eric MCFEE              Kingston      13/16  M35 - 39      413         160   20:11  2:42          94 1:00:06  30.0          103   35:29  4:56
  112     1:55:46 Peter NELSON            Kingston       9/20  M50 - 54      301          46   15:42  2:06         107 1:00:59  29.5          164   39:06  5:26
  113     1:56:09 Abigail MORKEM          Bath          10/23  W25 - 29      582          90   17:26  2:20         117 1:01:53  29.1          128   36:51  5:07
  114     1:56:24 Doug RONSON             Kingston      10/20  M50 - 54      378         197   21:37  2:53          91   59:56  30.0           90   34:52  4:51
  115     1:56:27 Linda MARTIN            Dunrobin       1/14  W40 - 44      573          84   17:16  2:19          83   59:18  30.4          176   39:54  5:33
  116     1:56:39 Ravi SUNDER             Kingston       8/12  M25 - 29      453         142   19:34  2:37         124 1:02:09  29.0           91   34:58  4:52
  117     1:56:43 Claire MICHEL           Kingston      11/23  W25 - 29      558          27   14:19  1:55          41   55:55  32.2          231   46:30  6:28
  118     1:56:57 Erika HIRTLE            Brockville     5/16  W20 - 24      501          51   15:56  2:08         134 1:02:54  28.6          151   38:07  5:18
  119     1:56:57 John MEEKEL             Kingston      11/20  M50 - 54      461         151   19:51  2:39         108 1:01:01  29.5          114   36:06  5:01
  120 CLY 1:57:00 Michael DAVIDSON        Ottawa        14/16  M35 - 39      422         188   21:05  2:49          97 1:00:21  29.8          107   35:35  4:57
  121     1:57:21 Mark RICHARDS           Inverary      11/18  M30 - 34      459         147   19:41  2:38         164 1:04:36  27.9           55   33:05  4:36
  122     1:57:29 Ross BURNS              Kingston       8/13  M20 - 24      387         208   22:30  3:00         135 1:02:58  28.6           40   32:02  4:27
  123     1:57:34 Denis GERVAIS           St-Isidore    20/30  M40 - 44      452         175   20:44  2:46         148 1:03:37  28.3           61   33:14  4:37
  124     1:57:39 Tegan UPJOHN            Kingston      12/23  W25 - 29      605          75   17:04  2:17         131 1:02:22  28.9          153   38:14  5:19
  125     1:57:44 Andrew SMILLIE          Kingston      12/20  M50 - 54      367          93   17:33  2:21         121 1:01:59  29.0          154   38:14  5:19
  126     1:57:57 Jim KEECH               Bath          13/20  M50 - 54      372         162   20:12  2:42         112 1:01:36  29.2          116   36:10  5:02
  127     1:58:07 Brody PEDDLE            Kingston      12/18  M30 - 34      403         256   28:19  3:47          51   57:02  31.6           49   32:47  4:34
  128     1:58:07 Jill FISHER             Rockwood       3/16  W45 - 49      624         106   18:11  2:26          89   59:51  30.1          179   40:06  5:35
  129     1:58:19 David ANDREW            Kingston       5/9   M55 - 59      411         180   20:52  2:47         116 1:01:51  29.1          108   35:37  4:57
  130     1:58:24 Melissa PAK             Markham       13/23  W25 - 29      505          61   16:26  2:12         172 1:05:24  27.5          121   36:35  5:05
  131     1:58:25 Rich CAMERON            Kingston       6/9   M55 - 59      342         148   19:46  2:39         142 1:03:25  28.4           97   35:16  4:54
  132     1:58:36 Bryden MAGEE            Kingston      14/23  W25 - 29      612          65   16:40  2:14         127 1:02:15  28.9          172   39:41  5:31
  133     1:58:36 Martin VANDEN HANENBERG Ottawa         7/9   M55 - 59      456         200   22:02  2:57         118 1:01:57  29.1           81   34:38  4:49
  134     1:58:50 Beth BRUCE              Kingston       2/8   W35 - 39      524          94   17:38  2:22         184 1:06:32  27.1           82   34:40  4:49
  135     1:59:02 Aaron BRUYNS            Verona         9/13  M20 - 24      460         113   18:22  2:27         153 1:03:59  28.1          125   36:42  5:06
  136     1:59:09 David HIRTLE            Brockville    14/20  M50 - 54      306         177   20:50  2:47          55   57:25  31.3          190   40:55  5:41
  137     1:59:26 Gale CHEVALIER          Kingston       2/14  W40 - 44      502         186   21:01  2:49         111 1:01:30  29.3          131   36:56  5:08
  138     1:59:37 Peter ELLIS             Kingston      10/21  M45 - 49      401         171   20:35  2:45         114 1:01:44  29.2          139   37:19  5:11
  139 CLY 1:59:44 Mike SCOTTEN            Ottawa        21/30  M40 - 44      349         135   19:21  2:35         150 1:03:55  28.2          118   36:29  5:05
  140     1:59:49 Kate PULMAN             Kingston      15/23  W25 - 29      607         139   19:28  2:36         126 1:02:15  28.9          152   38:07  5:18
  141     1:59:54 Clifford MOUNTAIN       Yarker        11/21  M45 - 49      324         130   19:11  2:34         104 1:00:57  29.5          173   39:47  5:32
  142     2:01:19 Andrew MACDONALD        Perth         15/20  M50 - 54      386         166   20:23  2:44         173 1:05:25  27.5          105   35:32  4:57
  143     2:01:27 Cathy CAMPANARO         Kingston       3/14  W40 - 44      626         146   19:41  2:38         138 1:03:14  28.5          159   38:32  5:22
  144     2:01:27 Jane RAVENSHAW          Brampton       4/16  W45 - 49      559         213   22:44  3:02         123 1:02:08  29.0          122   36:36  5:05
  145     2:01:30 Cameron MCFARLAND       Kingston      15/16  M35 - 39      388         158   20:06  2:41         180 1:06:07  27.2           98   35:17  4:55
  146     2:01:36 Scott CLANCY            Kingston      22/30  M40 - 44      318         114   18:24  2:28         141 1:03:20  28.4          175   39:53  5:33
  147     2:01:45 Ryan DALES              Kingston      13/18  M30 - 34      433         176   20:47  2:47         156 1:04:05  28.1          130   36:54  5:08
  148     2:01:53 Bruce MCLEOD            Kingston      12/21  M45 - 49      483         190   21:14  2:50         120 1:01:58  29.0          161   38:42  5:23
  149     2:01:56 Diane HARPER            Brighton       5/16  W45 - 49      543          79   17:08  2:17         168 1:04:52  27.7          177   39:57  5:33
  150     2:02:00 Paul WISNIEWSKI         Burlington    23/30  M40 - 44      419         182   20:55  2:48         145 1:03:28  28.4          146   37:38  5:14
  151     2:02:04 Brian MCDONALD          Kingston      16/20  M50 - 54      360          68   16:43  2:14         154 1:04:01  28.1          196   41:21  5:45
  152     2:02:07 David GROSS             Clifton Park  17/20  M50 - 54      390         122   18:52  2:31         186 1:06:42  27.0          120   36:33  5:05
  153     2:02:16 Kate POLLON-MACLEOD     North Bay      6/16  W20 - 24      616          96   17:56  2:24         161 1:04:21  28.0          178   40:00  5:34
  154     2:02:23 Cindy HEALY             Kingston       6/16  W45 - 49      504         133   19:20  2:35         144 1:03:26  28.4          171   39:38  5:31
  155     2:02:49 Brenda RAVENSCROFT      Kingston       7/16  W45 - 49      592          99   18:01  2:25         163 1:04:30  27.9          181   40:20  5:37
  156     2:02:54 Megan VOWLES            Kingston       4/14  W30 - 34      517          67   16:42  2:14         174 1:05:32  27.5          187   40:41  5:39
  157     2:02:58 Joey STEACY             Kingston       4/5   Elite Men     383         214   22:46  3:03         197 1:08:05  26.4           42   32:09  4:28
  158     2:03:28 Kirsten HOEDLMOSER      Barrie         7/16  W20 - 24      518          76   17:04  2:17         196 1:07:41  26.6          162   38:44  5:23
  159     2:03:44 Michelle POTHIER        Picton         4/14  W40 - 44      610         202   22:11  2:58         159 1:04:11  28.0          143   37:23  5:12
  160     2:03:45 Joe CONNOLLY            Sydenham       9/11  Junior Men    478         181   20:53  2:48         176 1:05:53  27.3          132   37:00  5:09
  161     2:03:46 Stephen LIU             Kingston       9/12  M25 - 29      323         223   23:09  3:06          87   59:48  30.1          188   40:49  5:41
  162     2:03:58 Michael BURLEIGH        Montreal      24/30  M40 - 44      363         212   22:36  3:01         181 1:06:11  27.2           96   35:12  4:54
  163     2:03:59 Marilee JACKSON         Kingston       3/8   W35 - 39      551         205   22:24  3:00         179 1:06:05  27.2          104   35:31  4:56
  164     2:04:20 Christianne MORETTI     Richmond Hil   4/8   W35 - 39      614         138   19:26  2:36         183 1:06:30  27.1          157   38:25  5:21
  165     2:04:50 Andrea GREEK            Kingston       8/16  W45 - 49      630         216   22:57  3:04         149 1:03:40  28.3          155   38:15  5:19
  166     2:04:52 Robert BUDGELL          St. Catharin  13/21  M45 - 49      340         184   20:57  2:48         192 1:07:18  26.7          124   36:38  5:06
  167     2:05:07 Kathleen BROWN          Kingston       8/16  W20 - 24      541          66   16:41  2:14         212 1:09:50  25.8          160   38:36  5:22
  168     2:05:13 Andre GOLEMIEC          Kingston      14/21  M45 - 49      477         195   21:24  2:52         130 1:02:22  28.9          200   41:28  5:46
  169     2:05:22 Kyla SMITH              Kingston       5/8   W35 - 39      619         127   19:05  2:33         162 1:04:29  27.9          202   41:49  5:49
  170     2:05:47 Brodie MCDONELL         Kanata        16/16  M35 - 39      362         209   22:33  3:01         171 1:05:16  27.6          150   37:59  5:17
  171     2:05:51 Christina SCHROEN       Toronto        5/14  W30 - 34      555          92   17:31  2:21         213 1:09:56  25.7          158   38:25  5:21
  172     2:06:00 Victoria PEARSON        Kingston       9/16  W45 - 49      580         134   19:20  2:35         165 1:04:43  27.8          203   41:58  5:50
  173     2:06:06 Jen PAYNE               Kingston       6/14  W30 - 34      521         169   20:29  2:44         205 1:08:56  26.1          126   36:42  5:06
  174     2:06:10 Kim GRIMARD             Kingston       9/16  W20 - 24      566          74   16:55  2:16         169 1:05:11  27.6          219   44:05  6:08
  175     2:06:19 Shirley MYERS           Kingston       1/4   W55 - 59      512         215   22:51  3:03         208 1:09:13  26.0           76   34:16  4:46
  176     2:06:21 Frederic MAURETTE       Ottawa        25/30  M40 - 44      467         132   19:18  2:35         189 1:06:54  26.9          180   40:10  5:35
  177     2:06:36 Diane URIE              Kingston       5/14  W40 - 44      529          86   17:21  2:19         194 1:07:35  26.6          201   41:41  5:48
  178     2:07:04 Mike SOUTHGATE          Kanata        15/21  M45 - 49      317         221   23:07  3:05         188 1:06:49  26.9          135   37:09  5:10
  179     2:07:30 Madelaine GORDON        Gananoque     10/16  W20 - 24      562         185   20:59  2:48         178 1:06:01  27.3          183   40:31  5:38
  180     2:07:30 Mike PORTER             Kingston      26/30  M40 - 44      434         201   22:08  2:57         139 1:03:17  28.4          204   42:06  5:51
  181     2:07:35 Peter PURVIS            Guelph        16/21  M45 - 49      420         173   20:42  2:46         151 1:03:56  28.2          215   42:58  5:59
  182     2:07:40 Patti MCCAULEY          Kingston       1/4   W50 - 54      506         143   19:36  2:37         177 1:05:55  27.3          206   42:10  5:52
  183     2:07:43 Bill HENRY              Dunrobin       8/9   M55 - 59      414         234   24:11  3:14         160 1:04:13  28.0          168   39:21  5:28
  184     2:07:53 Josey STEEL             Kingston       6/14  W40 - 44      554         161   20:12  2:42         217 1:10:23  25.6          140   37:20  5:12
  185     2:07:56 Daniel CONRAD           Maple         10/13  M20 - 24      319         237   24:20  3:15         136 1:03:03  28.5          185   40:35  5:39
  186     2:08:03 Justin CHENIER          Kingston      14/18  M30 - 34      438         206   22:25  3:00         140 1:03:19  28.4          208   42:20  5:53
  187     2:08:07 Joanna MARRIOTT         Kingston      11/16  W20 - 24      515         178   20:51  2:47         200 1:08:07  26.4          165   39:10  5:27
  188     2:08:07 Jocelyne QUANE          Ottawa        12/16  W20 - 24      571         136   19:22  2:35         185 1:06:38  27.0          205   42:08  5:52
  189     2:08:55 Wendy MCCOY             Marmora        7/14  W40 - 44      588         235   24:18  3:15         128 1:02:18  28.9          209   42:21  5:53
  190     2:09:03 Cindy COWIN             Kingston       2/4   W50 - 54      526         154   19:56  2:40         201 1:08:07  26.4          193   41:01  5:42
  191     2:09:23 Bob PUTZLOCHER          Inverary      18/20  M50 - 54      339         253   27:54  3:44         167 1:04:48  27.8          127   36:42  5:06
  192     2:09:41 Joan TRANMER            Kingston       2/4   W55 - 59      590         121   18:44  2:30         147 1:03:36  28.3          235   47:22  6:35
  193     2:09:52 Dave HACKNEY            Cobourg       17/21  M45 - 49      416         228   23:45  3:10         190 1:06:55  26.9          166   39:13  5:27
  194     2:09:58 Frank SPINDLER          Kingston       5/5   Elite Men     409         232   24:04  3:13         106 1:00:59  29.5          224   44:56  6:15
  195     2:10:06 Elyse BELL              Kingston      13/16  W20 - 24      556         123   18:55  2:32         220 1:10:38  25.5          184   40:34  5:39
  196     2:10:17 Brooke AMPHLETT         Milton         6/8   W35 - 39      549         150   19:48  2:39         209 1:09:33  25.9          192   40:57  5:42
  197     2:10:29 Tanya KHAN              Kingston      14/16  W20 - 24      568         191   21:17  2:51         215 1:10:19  25.6          163   38:54  5:25
  198     2:10:30 Geoff FLYNN             RR3 Bath       1/2   M70 - 74      353         149   19:48  2:39         157 1:04:07  28.1          232   46:36  6:29
  199     2:10:44 Jody SKINNER            Orleans        7/8   W35 - 39      615         219   23:02  3:05         203 1:08:27  26.3          167   39:15  5:27
  200     2:10:53 Scott MORRISON          Kingston      27/30  M40 - 44      311         198   21:43  2:54         227 1:11:58  25.0          136   37:13  5:11
  201     2:11:01 Katherine HILLEN        Kingston      10/16  W45 - 49      507         199   21:44  2:54         187 1:06:45  27.0          213   42:34  5:55
  202 CLY 2:11:05 Sean LACKEY             Kingston      11/13  M20 - 24      397         229   23:47  3:11         182 1:06:23  27.1          191   40:55  5:41
  203     2:11:15 Brian FLYNN             Kingston      28/30  M40 - 44      334         194   21:21  2:51         193 1:07:25  26.7          212   42:30  5:55
  204     2:11:33 Jasmine MA              Kingston       4/5   Junior Women  625         238   24:28  3:16         195 1:07:38  26.6          169   39:28  5:29
  205     2:11:36 Julia HAYHOE            Inverary       8/14  W40 - 44      535         116   18:35  2:29         210 1:09:38  25.8          217   43:24  6:02
  206     2:12:04 Deb THOMPSON            Kingston      11/16  W45 - 49      520         164   20:16  2:43         219 1:10:30  25.5          195   41:19  5:45
  207     2:12:10 Aaron GRAVES            Kingston      10/12  M25 - 29      391          43   15:30  2:04         146 1:03:34  28.3          255   53:08  7:23
  208     2:12:24 Scott PERO              Lake Orion    15/18  M30 - 34      451         203   22:19  2:59         204 1:08:43  26.2          198   41:23  5:45
  209     2:12:42 Katie SPARKS            Kingston      16/23  W25 - 29      631         251   26:59  3:36         199 1:08:07  26.4          147   37:38  5:14
  210     2:12:56 Morgan BATSON           Sydenham      15/16  W20 - 24      621         153   19:53  2:39         166 1:04:45  27.8          242   48:19  6:43
  211     2:13:02 Matt MCCLOY             Richmond Hil  16/18  M30 - 34      337         226   23:40  3:10         222 1:11:07  25.3          156   38:15  5:19
  212 CLY 2:13:03 Janet ALLAIRE           Belleville     7/14  W30 - 34      628         246   26:12  3:30         129 1:02:18  28.9          222   44:34  6:12
  213     2:13:23 Jennifer CAUGHILL       Niagara on t   9/14  W40 - 44      534         159   20:07  2:41         230 1:12:25  24.9          189   40:52  5:41
  214     2:14:16 Bernard CHAN            London        11/12  M25 - 29      315         210   22:34  3:01         216 1:10:20  25.6          197   41:22  5:45
  215     2:14:19 Melanie COLUMBUS        Sarnia        17/23  W25 - 29      583         126   19:01  2:33         221 1:10:44  25.4          223   44:35  6:12
  216     2:14:24 Tom ROTHFELS            Toronto       19/20  M50 - 54      468         231   23:58  3:12         198 1:08:05  26.4          210   42:22  5:53
  217     2:16:01 Kyra NABETA             Kingston      18/23  W25 - 29      570         252   27:01  3:37         122 1:02:05  29.0          234   46:55  6:31
  218     2:16:10 Jessica KING            Perth         19/23  W25 - 29      508         193   21:19  2:51         238 1:13:28  24.5          199   41:25  5:46
  219     2:16:52 Fiona MCDONELL          Kanata         8/14  W30 - 34      545         204   22:23  2:59         244 1:16:34  23.5          149   37:56  5:17
  220     2:17:02 Logan GRAF              Sydenham      10/11  Junior Men    473         192   21:17  2:51         211 1:09:47  25.8          228   45:59  6:24
  221     2:17:38 Amy SNOWDON             Frankville     5/5   Junior Women  608         247   26:23  3:31         206 1:08:58  26.1          207   42:18  5:53
  222     2:18:27 Jennifer MACKENZIE      Kingston      12/16  W45 - 49      581         174   20:42  2:46         232 1:12:46  24.7          225   45:00  6:15
  223     2:18:32 Carla WALKER            Aurora        10/14  W40 - 44      587         225   23:29  3:08         224 1:11:30  25.2          218   43:34  6:03
  224     2:18:40 Eleanor CASEY           Kingston       3/4   W55 - 59      519         239   24:42  3:18         240 1:14:21  24.2          170   39:37  5:31
  225     2:18:46 Katherine BRUCE         Toronto       13/16  W45 - 49      553         217   22:59  3:04         237 1:13:24  24.5          211   42:24  5:54
  226     2:19:24 Maggie VINCENT          Kingston      16/16  W20 - 24      620         248   26:31  3:33         235 1:13:04  24.6          174   39:50  5:32
  227     2:19:31 Corrina WILSON          Sydenham       9/14  W30 - 34      509         220   23:05  3:05         223 1:11:12  25.3          226   45:15  6:18
  228     2:19:49 Robin HULL              Smiths Falls  10/14  W30 - 34      613         224   23:22  3:07         236 1:13:04  24.6          216   43:24  6:02
  229 CLY 2:20:32 Thomas HOLMES           Kingston      18/21  M45 - 49      321         165   20:18  2:43         214 1:10:06  25.7          250   50:08  6:58
  230     2:20:36 Mathieu DUFOUR          Kingston      17/18  M30 - 34      427         196   21:36  2:53         234 1:13:00  24.7          229   46:01  6:24
  231     2:21:27 Daniel MCDOUGALL        Kingston      18/18  M30 - 34      441         163   20:14  2:42         243 1:15:39  23.8          227   45:35  6:20
  232     2:21:29 Lorraine VAN DER KAMP   Brighton      11/14  W40 - 44      601         128   19:06  2:33         226 1:11:57  25.0          252   50:27  7:01
  233     2:21:43 Lindsay REID            Kingston      20/23  W25 - 29      578         233   24:05  3:13         245 1:16:38  23.5          194   41:02  5:42
  234     2:22:20 Kelly TAKE              Kingston      11/14  W30 - 34      599         211   22:35  3:01         218 1:10:26  25.6          245   49:19  6:51
  235     2:22:22 Kate LILLICRAP          Peterborough  21/23  W25 - 29      550         170   20:33  2:45         233 1:12:58  24.7          244   48:52  6:48
  236     2:22:46 Courtney WARNER         Georgetown     1/3   M65 - 69      481         179   20:51  2:47         231 1:12:36  24.8          246   49:20  6:51
  237     2:24:14 Don CRONE               Godfrey        2/3   M65 - 69      480         243   25:42  3:26         225 1:11:49  25.1          233   46:44  6:30
  238     2:24:16 Cindy SOUTHGATE         Kanata         3/4   W50 - 54      510         242   25:27  3:24         241 1:14:33  24.1          221   44:16  6:09
  239 CLY 2:25:34 Anthony FLEMING         London        19/21  M45 - 49      309         250   26:53  3:35         202 1:08:27  26.3          251   50:15  6:59
  240     2:26:01 Mary JARVIS             Ottawa        12/14  W40 - 44      593         236   24:19  3:15         239 1:14:08  24.3          236   47:35  6:37
  241     2:26:11 Robert GEORGE           Kingston      29/30  M40 - 44      450         255   28:10  3:46         247 1:17:37  23.2          182   40:25  5:37
  242     2:26:23 Jennifer SMITH          Maple         12/14  W30 - 34      617         240   24:44  3:18         246 1:17:27  23.2          220   44:13  6:09
  243     2:26:53 Lisette WESTENBERG      Kingston      14/16  W45 - 49      600         227   23:42  3:10         242 1:15:11  23.9          241   48:01  6:41
  244     2:28:59 Robert MCCALDON         Hartington     2/2   M70 - 74      465         187   21:04  2:49         207 1:09:13  26.0          258   58:44  8:10
  245     2:29:14 Chris ROBERTS           Kingston      20/21  M45 - 49      366         265   33:26  4:28         191 1:07:10  26.8          243   48:39  6:46
  246     2:30:37 Megan COUGHLIN          Napanee       13/14  W30 - 34      514         172   20:40  2:46         248 1:19:57  22.5          249   50:02  6:57
  247     2:30:40 Michael MONAHAN         Kingston      20/20  M50 - 54      326         245   26:00  3:28         228 1:12:02  25.0          254   52:39  7:19
  248     2:31:27 Eben SEAMAN             Kanata        12/13  M20 - 24      430          63   16:33  2:13         262 1:27:11  20.6          237   47:44  6:38
  249     2:31:47 Shaun SEAMAN            Kanata         9/9   M55 - 59      424         124   18:55  2:32         229 1:12:11  24.9          259 1:00:42  8:26
  250     2:33:17 Catherin ERNST-SPINDLER Kingston       2/2   Elite Women   576                                                              214   42:38  5:56
  251     2:38:08 John FORSTER            Kingston      11/11  Junior Men    400         249   26:48  3:35         258 1:25:10  21.1          230   46:11  6:25
  252 CLY 2:38:56 Devon LEHRER            Kingston      13/13  M20 - 24      385         230   23:51  3:11         249 1:20:34  22.3          256   54:31  7:35
  253     2:38:59 Jim PARKER              Kingston       3/3   M65 - 69      359         241   24:46  3:19         254 1:24:38  21.3          248   49:36  6:54
  254     2:41:08 Stephanie WISNIEWSKI    Harrowsmith   13/14  W40 - 44      595         222   23:07  3:05         250 1:20:35  22.3          257   57:26  7:59
  255     2:42:23 Mary MCLEOD             Kingston      15/16  W45 - 49      516         263   29:47  3:59         256 1:24:48  21.2          238   47:49  6:39
  256     2:42:24 Jenica RAYNE            Kingston      16/16  W45 - 49      523         262   29:44  3:58         257 1:24:49  21.2          239   47:51  6:39
  257     2:42:27 Danielle LENNON         Kingston      22/23  W25 - 29      542         264   29:49  3:59         255 1:24:46  21.2          240   47:53  6:39
  258     2:43:08 Tanya BETHELL           Markham        8/8   W35 - 39      536         254   27:56  3:44         253 1:22:58  21.7          253   52:14  7:16
  259     2:44:52 Genevieve TREMBLAY      Montreal      14/14  W30 - 34      611         259   28:21  3:47         261 1:27:01  20.7          247   49:31  6:53
  260     2:55:30 Sue WOOD                Kingston       4/4   W55 - 59      623         257   28:19  3:47         260 1:26:11  20.9          260 1:01:01  8:29
  261     2:55:31 Cheryll WOOD            Kingston      23/23  W25 - 29      622         258   28:20  3:47         259 1:26:10  20.9          261 1:01:02  8:29
  262     3:04:47 Fiona DUTWEILER         East Amherst   4/4   W50 - 54      532                                                              262 1:05:19  9:05
  263     3:08:06 Ruth GEORGE             Kingston       1/1   W70 - 74      565         260   29:16  3:55         252 1:22:13  21.9          263 1:16:39 10:39
  264     3:08:07 Lynda MILINA            Ottawa        14/14  W40 - 44      563         261   29:18  3:55         251 1:22:08  21.9          264 1:16:42 10:40
  265 DNF         Stuart COOKE            Kingston      12/12  M25 - 29      455         244   25:46  3:27         263 1:38:44  18.2
  266 DNF         David PETERSON          Kingston      30/30  M40 - 44      443          35   14:56  2:00
  267 DNF         Robb SCHOULAR           Stittsville   21/21  M45 - 49      300          55   16:08  2:09